• Join FlightAware (Why Join?)
  • Login
  • US Flag 
08:03AM EST


 

Airport Tracker/Info


-or-


 

Live Flight TrackerFlight Track Log ✈ DAL268 ✈ 01-Aug-2013 ✈ KSFO - KJFK

Flight Track Log - Related Links

Times and Time Zones

All times are in EDT time to prevent confusion due to time zone crossing. See the DAL268 flight status page for this flight to view local times or setup timezone preferences in your user account.

Time Position Orientation Groundspeed Altitude Reporting Facility
EDT Latitude Longitude Course Direction KTS MPH feet Rate Location/Type
02:48PM 37.6150 -122.3650 302° West 110 127  Level FlightAware
02:49PM 37.6244 -122.3880 297° West 169 194 700 1,742 Climbing FlightAware ADS-B
02:49PM 37.6263 -122.3910 309° West 172 198 900 3,000 Climbing FlightAware ADS-B
02:49PM 37.6287 -122.3930 327° Northwest 174 200 1,100 3,429 Climbing FlightAware ADS-B
02:49PM 37.6316 -122.3950 331° Northwest 179 206 1,300 3,429 Climbing FlightAware ADS-B
02:49PM 37.6344 -122.3960 344° North 182 209 1,500 2,667 Climbing FlightAware ADS-B
02:49PM 37.6387 -122.3960 360° North 188 216 1,700 3,000 Climbing FlightAware ADS-B
02:49PM 37.6418 -122.3960 360° North 193 222 1,900 2,667 Climbing FlightAware ADS-B
02:49PM 37.6472 -122.3940 16° North 200 230 2,100 2,526 Climbing FlightAware ADS-B
02:49PM 37.6569 -122.3860 33° Northeast 204 235 2,700 3,000 Climbing FlightAware ADS-B
02:49PM 37.6619 -122.3770 55° Northeast 202 232 3,200 2,500 Climbing FlightAware ADS-B
02:50PM 37.6693 -122.3610 60° Northeast 213 245 3,700 1,742 Climbing FlightAware ADS-B
02:50PM 37.6778 -122.3430 59° Northeast 237 273 4,100 1,742 Climbing FlightAware ADS-B
02:50PM 37.6870 -122.3250 57° Northeast 249 287 4,600 2,129 Climbing FlightAware ADS-B
02:50PM 37.6975 -122.3040 58° Northeast 267 307 5,200 2,333 Climbing FlightAware ADS-B
02:51PM 37.7110 -122.2770 58° Northeast 280 322 6,000 2,462 Climbing FlightAware ADS-B
02:51PM 37.7241 -122.2510 57° Northeast 287 330 6,800 2,743 Climbing FlightAware ADS-B
02:51PM 37.7354 -122.2280 58° Northeast 290 334 7,600 2,897 Climbing FlightAware ADS-B
02:52PM 37.7458 -122.2100 54° Northeast 293 337 8,200 2,727 Climbing FlightAware ADS-B
02:52PM 37.7546 -122.1990 45° Northeast 292 336 8,600 2,769 Climbing FlightAware ADS-B
02:52PM 37.7588 -122.1950 37° Northeast 293 337 8,800 3,158 Climbing FlightAware ADS-B
02:52PM 37.7750 -122.1780 40° Northeast 295 339 9,600 2,204 Climbing FlightAware ADS-B
02:53PM 37.8127 -122.1420 37° Northeast 316 364 10,600 1,500 Climbing FlightAware ADS-B
02:53PM 37.8508 -122.1070 36° Northeast 349 402 11,200 1,377 Climbing FlightAware ADS-B
02:54PM 37.8927 -122.0680 36° Northeast 377 434 12,000 1,869 Climbing FlightAware ADS-B
02:54PM 37.9370 -122.0270 36° Northeast 389 448 13,100 2,262 Climbing FlightAware ADS-B
02:55PM 37.9820 -121.9850 36° Northeast 398 458 14,300 2,031 Climbing FlightAware ADS-B
02:55PM 38.0333 -121.9380 36° Northeast 406 467 15,300 1,792 Climbing FlightAware ADS-B
02:56PM 38.0988 -121.8700 39° Northeast 426 490 16,600 1,846 Climbing FlightAware ADS-B
02:56PM 38.1090 -121.8540 51° Northeast 437 503 16,900 2,000 Climbing FlightAware ADS-B
02:57PM 38.1460 -121.7810 57° Northeast 447 514 18,000 1,754 Climbing FlightAware
02:57PM 38.1815 -121.7080 58° Northeast 437 503 18,800 1,500 Climbing FlightAware ADS-B
02:58PM 38.2172 -121.6350 58° Northeast 468 539 19,600 1,594 Climbing FlightAware ADS-B
02:58PM 38.2550 -121.5590 58° Northeast 476 548 20,500 1,658 Climbing FlightAware ADS-B
02:59PM 38.3110 -121.4550 56° Northeast 484 557 21,700 1,538 Climbing FlightAware
03:00PM 38.3590 -121.3820 50° Northeast 492 566 22,500 1,333 Climbing FlightAware
03:00PM 38.4160 -121.2960 50° Northeast 503 579 23,300 1,263 Climbing FlightAware
03:01PM 38.4720 -121.2110 50° Northeast 514 592 24,100 1,286 Climbing FlightAware
03:01PM 38.5230 -121.1340 50° Northeast 522 601 24,800 1,324 Climbing FlightAware
03:02PM 38.5770 -121.0500 51° Northeast 529 609 25,600 1,286 Climbing FlightAware
03:03PM 38.6310 -120.9660 51° Northeast 537 618 26,300 1,333 Climbing FlightAware
03:03PM 38.6930 -120.8710 50° Northeast 544 626 27,200 1,297 Climbing FlightAware
03:04PM 38.7480 -120.7840 51° Northeast 549 632 27,900 1,059 Climbing FlightAware
03:04PM 38.8000 -120.7040 50° Northeast 556 640 28,400 1,371 Climbing FlightAware
03:05PM 38.8620 -120.6080 50° Northeast 554 638 29,500 1,500 Climbing FlightAware
03:05PM 38.9160 -120.5230 51° Northeast 554 638 30,200 1,455 Climbing FlightAware
03:06PM 38.9700 -120.4400 50° Northeast 554 638 31,100 1,543 Climbing FlightAware
03:07PM 39.0330 -120.3410 51° Northeast 554 638 32,000 1,333 Climbing FlightAware
03:07PM 39.0880 -120.2550 50° Northeast 552 635 32,700 845 Climbing FlightAware
03:08PM 39.1470 -120.1620 51° Northeast 555 639 33,000 261 Climbing FlightAware
03:08PM 39.1970 -120.0820 51° Northeast 556 640 33,000 646 Level FlightAware
03:09PM 39.2530 -119.9940 51° Northeast 553 636 33,700 1,297 Climbing FlightAware
03:10PM 39.3190 -119.8890 51° Northeast 549 632 34,600 1,479 Climbing FlightAware
03:10PM 39.3680 -119.8100 51° Northeast 546 628 35,500 1,364 Climbing FlightAware
03:11PM 39.4250 -119.7200 51° Northeast 549 632 36,100 882 Climbing FlightAware
03:11PM 39.4780 -119.6350 51° Northeast 549 632 36,500 750 Climbing FlightAware
03:12PM 39.5370 -119.5390 51° Northeast 547 629 37,000 405 Climbing FlightAware
03:12PM 39.5960 -119.4450 51° Northeast 545 627 37,000  Level FlightAware
03:13PM 39.6460 -119.3630 52° Northeast 547 629 37,000  Level FlightAware
03:14PM 39.7060 -119.2660 51° Northeast 552 635 37,000  Level FlightAware
03:14PM 39.7570 -119.1820 52° Northeast 552 635 37,000  Level FlightAware
03:15PM 39.8140 -119.0900 51° Northeast 552 635 37,000  Level FlightAware
03:15PM 39.8720 -118.9950 51° Northeast 553 636 37,000  Level FlightAware
03:16PM 39.9300 -118.9010 51° Northeast 555 639 37,000  Level FlightAware
03:17PM 39.9830 -118.8130 52° Northeast 556 640 37,000  Level FlightAware
03:17PM 40.0360 -118.7260 51° Northeast 558 642 37,000  Level FlightAware
03:18PM 40.1040 -118.6090 53° Northeast 558 642 37,000  Level FlightAware
03:18PM 40.1460 -118.5040 62° Northeast 549 632 37,000  Level FlightAware
03:19PM 40.1760 -118.3990 69° East 545 627 37,000  Level FlightAware
03:20PM 40.2050 -118.2910 71° East 544 626 37,000  Level FlightAware
03:20PM 40.2340 -118.1840 70° East 543 625 37,000  Level FlightAware
03:21PM 40.2710 -118.0460 71° East 542 624 37,000  Level FlightAware
03:21PM 40.3000 -117.9380 71° East 541 623 37,000  Level FlightAware
03:22PM 40.3290 -117.8300 71° East 541 623 37,000  Level FlightAware
03:23PM 40.3660 -117.6950 70° East 539 620 37,000  Level FlightAware
03:23PM 40.3920 -117.6010 70° East 539 620 37,000  Level FlightAware
03:24PM 40.4180 -117.5070 70° East 539 620 37,000  Level FlightAware
03:25PM 40.4440 -117.4130 70° East 539 620 37,000  Level FlightAware
03:25PM 40.4700 -117.3190 70° East 539 620 37,000  Level FlightAware
03:26PM 40.4990 -117.2140 70° East 539 620 37,000  Level FlightAware
03:27PM 40.5330 -117.0910 70° East 539 620 37,000  Level FlightAware
03:27PM 40.5590 -116.9960 70° East 539 620 37,000  Level FlightAware
03:28PM 40.5850 -116.9020 70° East 539 620 37,000  Level FlightAware
03:29PM 40.6110 -116.8080 70° East 539 620 37,000  Level FlightAware
03:29PM 40.6380 -116.7100 70° East 539 620 37,000  Level FlightAware
03:30PM 40.6640 -116.6160 70° East 539 620 37,000  Level FlightAware
03:30PM 40.6900 -116.5210 70° East 539 620 37,000  Level FlightAware
03:31PM 40.7691 -116.1820 73° East 539 620 37,000  Level FlightAware ADS-B
03:32PM 40.7967 -116.0780 71° East 537 618 37,000  Level FlightAware ADS-B
03:32PM 40.8224 -115.9810 71° East 538 619 37,000  Level FlightAware ADS-B
03:33PM 40.8501 -115.8750 71° East 539 620 37,000  Level FlightAware ADS-B
03:36PM 40.9986 -115.3040 71° East 531 611 37,000  Level FlightAware ADS-B
03:36PM 41.0227 -115.2100 71° East 530 610 37,000  Level FlightAware ADS-B
03:37PM 41.0466 -115.1160 71° East 529 609 37,000  Level FlightAware ADS-B
03:37PM 41.0710 -115.0200 71° East 531 611 37,000  Level FlightAware ADS-B
03:38PM 41.1026 -114.8950 71° East 530 610 37,000  Level FlightAware ADS-B
03:39PM 41.1538 -114.6920 71° East 530 610 37,000  Level FlightAware ADS-B
03:40PM 41.1775 -114.5970 72° East 532 612 37,000  Level FlightAware ADS-B
03:40PM 41.2008 -114.5030 72° East 536 617 37,000  Level FlightAware ADS-B
03:41PM 41.2246 -114.4070 72° East 538 619 37,000  Level FlightAware ADS-B
03:41PM 41.2481 -114.3110 72° East 537 618 37,000  Level FlightAware ADS-B
03:42PM 41.2760 -114.2010 71° East 536 617 37,000  Level FlightAware
03:42PM 41.2997 -114.1010 72° East 537 618 37,000  Level FlightAware ADS-B
03:43PM 41.3227 -114.0070 72° East 538 619 37,000  Level FlightAware ADS-B
03:43PM 41.3453 -113.9130 72° East 536 617 37,000  Level FlightAware ADS-B
03:43PM 41.3555 -113.8660 74° East 533 613 37,000  Level FlightAware ADS-B
03:44PM 41.3631 -113.8260 76° East 531 611 37,000  Level FlightAware ADS-B
03:44PM 41.3785 -113.7210 79° East 528 608 37,000  Level FlightAware ADS-B
03:45PM 41.3910 -113.6240 80° East 529 609 37,000  Level FlightAware ADS-B
03:45PM 41.4033 -113.5280 80° East 527 606 37,000  Level FlightAware ADS-B
03:46PM 41.4155 -113.4320 80° East 528 608 37,000  Level FlightAware ADS-B
03:46PM 41.4295 -113.3200 80° East 532 612 37,000  Level FlightAware ADS-B
03:47PM 41.4420 -113.2200 81° East 533 613 37,000  Level FlightAware ADS-B
03:47PM 41.4544 -113.1200 81° East 533 613 37,000  Level FlightAware ADS-B
03:48PM 41.4667 -113.0210 81° East 533 613 37,000  Level FlightAware ADS-B
03:48PM 41.4705 -112.9870 82° East 532 612 37,000  Level FlightAware ADS-B
03:48PM 41.4747 -112.8940 87° East 524 603 37,000  Level FlightAware ADS-B
03:49PM 41.4771 -112.7960 88° East 524 603 37,000  Level FlightAware ADS-B
03:49PM 41.4794 -112.6980 88° East 522 601 37,000  Level FlightAware ADS-B
03:50PM 41.4817 -112.6010 88° East 521 600 37,000  Level FlightAware ADS-B
03:51PM 41.4842 -112.5020 88° East 523 602 37,000  Level FlightAware ADS-B
03:51PM 41.4865 -112.4040 88° East 524 603 37,000  Level FlightAware ADS-B
03:52PM 41.4888 -112.3010 88° East 518 596 37,000  Level FlightAware ADS-B
03:52PM 41.4909 -112.2000 88° East 516 594 37,000  Level FlightAware ADS-B
03:53PM 41.4929 -112.1010 88° East 518 596 37,000  Level FlightAware ADS-B
03:53PM 41.4953 -111.9900 88° East 514 592 37,000  Level FlightAware ADS-B
03:54PM 41.4973 -111.8940 88° East 513 590 37,000  Level FlightAware ADS-B
03:54PM 41.4995 -111.7970 88° East 513 590 37,000  Level FlightAware ADS-B
03:55PM 41.5018 -111.6990 88° East 514 592 37,000  Level FlightAware ADS-B
03:55PM 41.5042 -111.6000 88° East 514 592 37,000  Level FlightAware ADS-B
03:56PM 41.5061 -111.5050 88° East 513 590 37,000  Level FlightAware ADS-B
03:56PM 41.5082 -111.4080 88° East 513 590 37,000  Level FlightAware ADS-B
03:57PM 41.5105 -111.3110 88° East 515 593 37,000  Level FlightAware ADS-B
03:57PM 41.5128 -111.2140 88° East 516 594 37,000  Level FlightAware ADS-B
03:58PM 41.5150 -111.1190 88° East 518 596 37,000  Level FlightAware ADS-B
03:58PM 41.5171 -111.0220 88° East 519 597 37,000  Level FlightAware ADS-B
03:59PM 41.5191 -110.9220 88° East 520 598 37,000  Level FlightAware ADS-B
03:59PM 41.5211 -110.8260 88° East 520 598 37,000  Level FlightAware ADS-B
04:00PM 41.5231 -110.7200 89° East 522 601 37,000  Level FlightAware ADS-B
04:01PM 41.5270 -110.5470 88° East 523 602 37,000  Level FlightAware
04:01PM 41.5290 -110.4320 89° East 523 602 37,000  Level FlightAware
04:02PM 41.5320 -110.2770 88° East 525 604 37,000  Level FlightAware
04:03PM 41.5350 -110.1520 88° East 525 604 37,000  Level FlightAware
04:04PM 41.5539 -109.9172 88° East 526 605 37,000  Level Salt Lake Center
04:05PM 41.5778 -109.7311 80° East 529 609 37,000  Level Salt Lake Center
04:06PM 41.6019 -109.5478 80° East 524 603 37,000  Level Salt Lake Center
04:07PM 41.6306 -109.3306 80° East 526 605 37,000  Level Salt Lake Center
04:08PM 41.6553 -109.1414 80° East 529 609 37,000  Level Salt Lake Center
04:09PM 41.6797 -108.9222 81° East 528 608 37,000  Level Salt Lake Center
04:10PM 41.7025 -108.7353 81° East 528 608 37,000  Level Salt Lake Center
04:11PM 41.7292 -108.5158 81° East 533 613 37,000  Level Salt Lake Center
04:12PM 41.7503 -108.3258 81° East 536 617 37,000  Level Salt Lake Center
04:13PM 41.7967 -108.1472 71° East 537 618 37,000  Level Salt Lake Center
04:14PM 41.8711 -107.9517 63° Northeast 531 611 37,000  Level Salt Lake Center
04:15PM 41.9333 -107.7814 64° Northeast 532 612 37,000  Level Salt Lake Center
04:16PM 42.0011 -107.5850 65° Northeast 521 600 37,000  Level Salt Lake Center
04:22PM 42.2590 -106.5230 65° Northeast 524 603 37,000  Level FlightAware
04:23PM 42.2980 -106.3520 73° East 526 605 37,000  Level FlightAware
04:24PM 42.3170 -106.2380 77° East 526 605 37,000  Level FlightAware
04:24PM 42.3400 -106.1250 75° East 526 605 37,000  Level FlightAware
04:25PM 42.3570 -105.9840 81° East 528 608 37,000  Level FlightAware
04:26PM 42.3630 -105.8740 86° East 527 606 37,000  Level FlightAware
04:26PM 42.3680 -105.7730 86° East 527 606 37,000  Level FlightAware
04:27PM 42.3730 -105.6690 86° East 527 606 37,000  Level FlightAware
04:27PM 42.3780 -105.5690 86° East 527 606 37,000  Level FlightAware
04:28PM 42.3790 -105.3930 90° East 532 612 37,000  Level FlightAware
04:29PM 42.3840 -105.2730 87° East 532 612 37,000  Level FlightAware
04:29PM 42.3894 -105.1450 87° East 532 612 37,000  Level FlightAware ADS-B
04:30PM 42.3934 -105.0440 87° East 533 613 37,000  Level FlightAware ADS-B
04:30PM 42.3974 -104.9430 87° East 535 616 37,000  Level FlightAware ADS-B
04:31PM 42.4013 -104.8420 87° East 533 613 37,000  Level FlightAware ADS-B
04:31PM 42.4050 -104.7410 87° East 533 613 37,000  Level FlightAware ADS-B
04:32PM 42.4088 -104.6370 87° East 534 615 37,000  Level FlightAware ADS-B
04:32PM 42.4125 -104.5350 87° East 533 613 37,000  Level FlightAware ADS-B
04:33PM 42.4162 -104.4280 87° East 532 612 37,000  Level FlightAware ADS-B
04:33PM 42.4197 -104.3280 87° East 534 615 37,000  Level FlightAware ADS-B
04:34PM 42.4231 -104.2260 87° East 534 615 37,000  Level FlightAware ADS-B
04:34PM 42.4263 -104.1260 87° East 533 613 37,000  Level FlightAware ADS-B
04:35PM 42.4294 -104.0270 88° East 533 613 37,000  Level FlightAware ADS-B
04:35PM 42.4326 -103.9240 88° East 533 613 37,000  Level FlightAware ADS-B
04:36PM 42.4355 -103.8240 88° East 532 612 37,000  Level FlightAware ADS-B
04:36PM 42.4384 -103.7230 88° East 532 612 37,000  Level FlightAware ADS-B
04:37PM 42.4413 -103.6210 88° East 532 612 37,000  Level FlightAware ADS-B
04:37PM 42.4441 -103.5160 88° East 531 611 37,000  Level FlightAware ADS-B
04:38PM 42.4471 -103.4030 88° East 531 611 37,000  Level FlightAware ADS-B
04:38PM 42.4496 -103.3000 88° East 532 612 37,000  Level FlightAware ADS-B
04:39PM 42.4523 -103.2530 86° East 530 610 37,000  Level FlightAware ADS-B
04:39PM 42.4669 -103.1540 79° East 529 609 37,000  Level FlightAware ADS-B
04:40PM 42.4825 -103.0560 78° East 530 610 37,000  Level FlightAware ADS-B
04:40PM 42.4999 -102.9450 78° East 530 610 37,000  Level FlightAware ADS-B
04:41PM 42.5192 -102.8220 78° East 529 609 37,000  Level FlightAware ADS-B
04:41PM 42.5365 -102.7100 78° East 529 609 37,000  Level FlightAware ADS-B
04:42PM 42.5564 -102.5810 78° East 529 609 37,000  Level FlightAware ADS-B
04:43PM 42.5789 -102.4320 78° East 530 610 37,000  Level FlightAware ADS-B
04:44PM 42.6142 -102.2022 78° East 530 610 37,000  Level Minneapolis Center
04:45PM 42.6400 -102.0144 79° East 529 609 37,000  Level Denver Center
04:46PM 42.6722 -101.8053 78° East 532 612 37,000  Level Denver Center
04:47PM 42.6994 -101.6192 79° East 526 605 37,000  Level Denver Center
04:48PM 42.7322 -101.4019 78° East 524 603 37,000  Level Denver Center
04:49PM 42.7578 -101.2161 79° East 523 602 37,000  Level Denver Center
04:50PM 42.7872 -101.0086 79° East 522 601 37,000  Level Denver Center
04:51PM 42.8156 -100.8136 79° East 525 604 37,000  Level Denver Center
04:52PM 42.8442 -100.6239 78° East 522 601 37,000  Level Minneapolis Center
04:53PM 42.8731 -100.4297 78° East 523 602 37,000  Level Minneapolis Center
04:54PM 42.9089 -100.1994 78° East 520 598 37,000  Level Minneapolis Center
04:55PM 42.9392 -100.0072 78° East 522 601 37,000  Level Minneapolis Center
04:57PM 42.9711 -99.8131 77° East 523 602 37,000  Level Minneapolis Center
04:58PM 42.9967 -99.6347 79° East 524 603 37,000  Level Minneapolis Center
04:59PM 42.9881 -99.3939 93° East 529 609 37,000  Level Minneapolis Center
05:00PM 42.9772 -99.1925 94° East 530 610 37,000  Level Minneapolis Center
05:01PM 42.9639 -98.9931 95° East 529 609 37,000 306 Level Minneapolis Center
05:06PM 43.0940 -97.8990 95° East 516 594 39,000 329 Climbing FlightAware
05:07PM 43.1150 -97.7870 76° East 517 595 39,000  Level FlightAware
05:07PM 43.1380 -97.6690 75° East 522 601 39,000  Level FlightAware
05:08PM 43.1580 -97.5640 75° East 525 604 39,000  Level FlightAware
05:09PM 43.1810 -97.4420 75° East 526 605 39,000  Level FlightAware
05:09PM 43.2010 -97.3380 75° East 526 605 39,000  Level FlightAware
05:10PM 43.2230 -97.2210 75° East 532 612 39,000  Level FlightAware
05:10PM 43.2400 -97.0970 79° East 537 618 39,000  Level FlightAware
05:11PM 43.2570 -96.9500 81° East 537 618 39,000  Level FlightAware
05:12PM 43.2710 -96.8210 81° East 537 618 39,000  Level FlightAware
05:12PM 43.2840 -96.7030 81° East 536 617 39,000  Level FlightAware
05:13PM 43.2980 -96.5770 81° East 535 616 39,000  Level FlightAware
05:13PM 43.3100 -96.4700 81° East 535 616 39,000  Level FlightAware
05:14PM 43.3220 -96.3580 82° East 534 615 39,000  Level FlightAware
05:15PM 43.3400 -96.2030 81° East 536 617 39,000  Level FlightAware
05:15PM 43.3510 -96.1010 82° East 537 618 39,000  Level FlightAware
05:16PM 43.3650 -95.9750 81° East 539 620 39,000  Level FlightAware
05:16PM 43.3690 -95.8480 87° East 548 631 39,000  Level FlightAware
05:17PM 43.3710 -95.7360 89° East 545 627 39,000  Level FlightAware
05:18PM 43.3760 -95.6270 86° East 545 627 39,000  Level FlightAware
05:18PM 43.3820 -95.5160 86° East 544 626 39,000  Level FlightAware
05:19PM 43.3880 -95.3930 86° East 543 625 39,000  Level FlightAware
05:19PM 43.3930 -95.2830 86° East 543 625 39,000  Level FlightAware
05:20PM 43.4000 -95.1410 86° East 544 626 39,000  Level FlightAware
05:21PM 43.4070 -95.0150 86° East 543 625 39,000  Level FlightAware
05:21PM 43.4130 -94.9060 86° East 543 625 39,000  Level FlightAware
05:22PM 43.4200 -94.7760 86° East 542 624 39,000  Level FlightAware
05:22PM 43.4240 -94.6990 86° East 543 625 39,000  Level FlightAware
05:23PM 43.4220 -94.5530 91° East 547 629 39,000  Level FlightAware
05:23PM 43.4090 -94.4170 97° East 551 634 39,000  Level FlightAware
05:24PM 43.3980 -94.2930 97° East 552 635 39,000  Level FlightAware
05:25PM 43.3870 -94.1650 97° East 554 638 39,000  Level FlightAware
05:25PM 43.3760 -94.0590 98° East 554 638 39,000  Level FlightAware
05:26PM 43.3630 -93.9230 97° East 554 638 39,000  Level FlightAware
05:26PM 43.3540 -93.8100 96° East 552 635 39,000  Level FlightAware
05:27PM 43.3470 -93.6940 95° East 550 633 39,000  Level FlightAware
05:28PM 43.3410 -93.5580 93° East 548 631 39,000  Level FlightAware
05:28PM 43.3360 -93.4500 94° East 545 627 39,000  Level FlightAware
05:29PM 43.3300 -93.3240 94° East 543 625 39,000  Level FlightAware
05:29PM 43.3260 -93.2090 93° East 541 623 39,000  Level FlightAware
05:30PM 43.3200 -93.0840 94° East 540 621 39,000  Level FlightAware
05:30PM 43.3150 -92.9650 93° East 540 621 39,000  Level FlightAware
05:31PM 43.3100 -92.8440 93° East 539 620 39,000  Level FlightAware
05:32PM 43.3040 -92.7310 94° East 539 620 39,000  Level FlightAware
05:32PM 43.2990 -92.6090 93° East 539 620 39,000  Level FlightAware
05:33PM 43.2930 -92.4850 94° East 539 620 39,000  Level FlightAware
05:33PM 43.2870 -92.3770 94° East 539 620 39,000  Level FlightAware
05:34PM 43.2800 -92.2410 94° East 540 621 39,000  Level FlightAware
05:35PM 43.2730 -92.1050 94° East 540 621 39,000  Level FlightAware
05:35PM 43.2670 -91.9850 94° East 539 620 39,000  Level FlightAware
05:36PM 43.2610 -91.8700 94° East 538 619 39,000  Level FlightAware
05:36PM 43.2540 -91.7470 94° East 538 619 39,000  Level FlightAware
05:37PM 43.2470 -91.6320 95° East 539 620 39,000  Level FlightAware
05:38PM 43.2400 -91.5140 95° East 537 618 39,000  Level FlightAware
05:38PM 43.2330 -91.3880 94° East 534 615 39,000  Level FlightAware
05:39PM 43.2270 -91.2780 94° East 532 612 39,000  Level FlightAware
05:39PM 43.2190 -91.1530 95° East 529 609 39,000  Level FlightAware
05:40PM 43.2120 -91.0400 95° East 526 605 39,000  Level FlightAware
05:41PM 43.2040 -90.9050 95° East 522 601 39,000  Level FlightAware
05:41PM 43.1960 -90.7910 95° East 519 597 39,000  Level FlightAware
05:41PM 43.1930 -90.7310 94° East 518 596 39,000  Level FlightAware
05:42PM 43.1820 -90.5670 95° East 514 592 39,000  Level FlightAware
05:43PM 43.1750 -90.4660 95° East 513 590 39,000  Level FlightAware
05:43PM 43.1680 -90.3600 95° East 513 590 39,000  Level FlightAware
05:44PM 43.1580 -90.2110 95° East 515 593 39,000  Level FlightAware
05:45PM 43.1500 -90.0950 95° East 515 593 39,000  Level FlightAware
05:45PM 43.1420 -89.9900 96° East 516 594 39,000  Level FlightAware
05:46PM 43.1340 -89.8710 95° East 516 594 39,000  Level FlightAware
05:46PM 43.1260 -89.7680 96° East 517 595 39,000  Level FlightAware
05:47PM 43.1170 -89.6460 96° East 517 595 39,000  Level FlightAware
05:48PM 43.1080 -89.5260 96° East 518 596 39,000  Level FlightAware
05:48PM 43.1000 -89.4190 96° East 519 597 39,000  Level FlightAware
05:49PM 43.0910 -89.2990 96° East 520 598 39,000  Level FlightAware
05:49PM 43.0810 -89.1810 97° East 522 601 39,000  Level FlightAware
05:50PM 43.0730 -89.0780 96° East 524 603 39,000  Level FlightAware
05:51PM 43.0630 -88.9520 96° East 526 605 39,000  Level FlightAware
05:51PM 43.0540 -88.8380 96° East 526 605 39,000  Level FlightAware
05:52PM 43.0450 -88.7290 96° East 527 606 39,000  Level FlightAware
05:52PM 43.0350 -88.6100 97° East 526 605 39,000  Level FlightAware
05:53PM 43.0270 -88.5090 96° East 526 605 39,000  Level FlightAware
05:53PM 43.0160 -88.3840 97° East 526 605 39,000  Level FlightAware
05:54PM 43.0050 -88.2610 97° East 525 604 39,000  Level FlightAware
05:55PM 42.9960 -88.1540 97° East 524 603 39,000  Level FlightAware
05:55PM 42.9870 -88.0550 97° East 523 602 39,000  Level FlightAware
05:56PM 42.9740 -87.9010 97° East 522 601 39,000  Level FlightAware
05:56PM 42.9630 -87.7850 97° East 521 600 39,000  Level FlightAware
05:57PM 42.9530 -87.6730 97° East 519 597 39,000  Level FlightAware
05:58PM 42.9430 -87.5670 97° East 517 595 39,000  Level FlightAware
05:58PM 42.9320 -87.4560 98° East 515 593 39,000  Level FlightAware
05:59PM 42.9200 -87.3310 97° East 514 592 39,000  Level FlightAware
05:59PM 42.9090 -87.2180 98° East 514 592 39,000  Level FlightAware
06:00PM 42.8990 -87.1150 98° East 513 590 39,000  Level FlightAware
06:01PM 42.8870 -86.9870 97° East 514 592 39,000  Level FlightAware
06:01PM 42.8740 -86.8570 98° East 515 593 39,000  Level FlightAware
06:02PM 42.8640 -86.7580 98° East 515 593 39,000  Level FlightAware
06:02PM 42.8510 -86.6320 98° East 514 592 39,000  Level FlightAware
06:03PM 42.8410 -86.5300 98° East 515 593 39,000  Level FlightAware
06:04PM 42.8290 -86.4230 99° East 515 593 39,000  Level FlightAware
06:04PM 42.8180 -86.3120 98° East 514 592 39,000  Level FlightAware
06:05PM 42.8150 -86.2100 92° East 505 581 39,000  Level FlightAware
06:05PM 42.8170 -86.0790 89° East 504 580 39,000  Level FlightAware
06:06PM 42.8200 -85.9690 88° East 502 578 39,000  Level FlightAware
06:07PM 42.8230 -85.8550 88° East 502 578 39,000  Level FlightAware
06:07PM 42.8250 -85.7440 89° East 503 579 39,000  Level FlightAware
06:08PM 42.8270 -85.6370 89° East 502 578 39,000  Level FlightAware
06:08PM 42.8280 -85.5310 89° East 502 578 39,000  Level FlightAware
06:09PM 42.8300 -85.4170 89° East 501 577 39,000  Level FlightAware
06:09PM 42.8320 -85.3030 89° East 500 575 39,000  Level FlightAware
06:10PM 42.8350 -85.2030 88° East 500 575 39,000  Level FlightAware
06:11PM 42.8380 -85.0880 88° East 500 575 39,000  Level FlightAware
06:11PM 42.8390 -84.9880 89° East 502 578 39,000  Level FlightAware
06:12PM 42.8380 -84.8670 91° East 501 577 39,000  Level FlightAware
06:12PM 42.8370 -84.7560 91° East 501 577 39,000  Level FlightAware
06:13PM 42.8360 -84.6410 91° East 501 577 39,000  Level FlightAware
06:14PM 42.8350 -84.5300 91° East 501 577 39,000  Level FlightAware
06:14PM 42.8350 -84.4290 90° East 501 577 39,000  Level FlightAware
06:15PM 42.8340 -84.3150 91° East 500 575 39,000  Level FlightAware
06:15PM 42.8340 -84.1970 90° East 502 578 39,000  Level FlightAware
06:16PM 42.8290 -84.1020 94° East 504 580 39,000  Level FlightAware
06:16PM 42.8190 -83.9850 97° East 505 581 39,000  Level FlightAware
06:17PM 42.8070 -83.8710 98° East 506 582 39,000  Level FlightAware
06:18PM 42.7960 -83.7690 98° East 506 582 39,000  Level FlightAware
06:18PM 42.7820 -83.6460 99° East 506 582 39,000  Level FlightAware
06:19PM 42.7710 -83.5450 98° East 506 582 39,000  Level FlightAware
06:19PM 42.7570 -83.4240 99° East 504 580 39,000  Level FlightAware
06:20PM 42.7470 -83.3320 98° East 505 581 39,000  Level FlightAware
06:21PM 42.7320 -83.2080 99° East 504 580 39,000  Level FlightAware
06:21PM 42.7210 -83.1120 99° East 503 579 39,000  Level FlightAware
06:22PM 42.7090 -83.0080 99° East 500 575 39,000  Level FlightAware
06:22PM 42.6950 -82.8900 99° East 498 573 39,000  Level FlightAware
06:23PM 42.6820 -82.7780 99° East 496 571 39,000  Level FlightAware
06:23PM 42.6700 -82.6800 99° East 496 571 39,000  Level FlightAware
06:24PM 42.6560 -82.5650 99° East 496 571 39,000  Level FlightAware
06:25PM 42.6440 -82.4670 99° East 495 570 39,000  Level FlightAware
06:25PM 42.6310 -82.3580 99° East 494 568 39,000  Level FlightAware
06:26PM 42.6190 -82.2590 99° East 493 567 39,000  Level FlightAware
06:26PM 42.6050 -82.1470 100° East 493 567 39,000  Level FlightAware
06:27PM 42.5930 -82.0510 100° East 492 566 39,000  Level FlightAware
06:28PM 42.5780 -81.9280 99° East 493 567 39,000  Level FlightAware
06:28PM 42.5660 -81.8380 100° East 493 567 39,000  Level FlightAware
06:29PM 42.5530 -81.7290 99° East 494 568 39,000  Level FlightAware
06:29PM 42.5360 -81.6010 100° East 495 570 39,000  Level FlightAware
06:30PM 42.5220 -81.4880 100° East 497 572 39,000  Level FlightAware
06:31PM 42.5080 -81.3810 100° East 497 572 39,000  Level FlightAware
06:31PM 42.4920 -81.2610 100° East 496 571 39,000  Level FlightAware
06:32PM 42.4770 -81.1490 100° East 495 570 39,000  Level FlightAware
06:32PM 42.4620 -81.0400 101° East 495 570 39,000  Level FlightAware
06:33PM 42.4490 -80.9420 100° East 496 571 39,000  Level FlightAware
06:34PM 42.4350 -80.8330 100° East 496 571 39,000  Level FlightAware
06:34PM 42.4200 -80.7240 101° East 497 572 39,000  Level FlightAware
06:35PM 42.4070 -80.6270 100° East 496 571 39,000  Level FlightAware
06:35PM 42.3920 -80.5200 101° East 496 571 39,000  Level FlightAware
06:36PM 42.3760 -80.4090 101° East 495 570 39,000  Level FlightAware
06:36PM 42.3610 -80.2970 100° East 496 571 39,000  Level FlightAware
06:37PM 42.3470 -80.1990 101° East 495 570 39,000  Level FlightAware
06:38PM 42.3320 -80.0920 101° East 495 570 39,000  Level FlightAware
06:38PM 42.3180 -79.9960 101° East 495 570 39,000  Level FlightAware
06:39PM 42.3000 -79.8730 101° East 495 570 39,000  Level FlightAware
06:39PM 42.2860 -79.7780 101° East 497 572 39,000  Level FlightAware
06:40PM 42.2710 -79.6720 101° East 497 572 39,000  Level FlightAware
06:41PM 42.2540 -79.5590 101° East 496 571 39,000  Level FlightAware
06:41PM 42.2380 -79.4510 101° East 496 571 39,000  Level FlightAware
06:42PM 42.2220 -79.3440 101° East 496 571 39,000  Level FlightAware
06:42PM 42.2060 -79.2370 101° East 497 572 39,000  Level FlightAware
06:43PM 42.1900 -79.1360 102° East 497 572 39,000  Level FlightAware
06:43PM 42.1680 -79.0310 106° East 496 571 39,000  Level FlightAware
06:44PM 42.1400 -78.9240 109° East 496 571 39,000  Level FlightAware
06:45PM 42.1150 -78.8260 109° East 494 568 39,000  Level FlightAware
06:45PM 42.0900 -78.7270 109° East 494 568 39,000  Level FlightAware
06:46PM 42.0630 -78.6210 109° East 493 567 39,000  Level FlightAware
06:46PM 42.0370 -78.5190 109° East 492 566 39,000  Level FlightAware
06:47PM 42.0110 -78.4170 109° East 491 565 39,000  Level FlightAware
06:48PM 41.9860 -78.3190 109° East 489 563 39,000  Level FlightAware
06:48PM 41.9600 -78.2200 109° East 486 559 39,000  Level FlightAware
06:49PM 41.9340 -78.1180 109° East 483 556 39,000  Level FlightAware
06:49PM 41.9080 -78.0160 109° East 481 554 39,000  Level FlightAware
06:50PM 41.8850 -77.9300 110° East 479 551 39,000  Level FlightAware
06:50PM 41.8600 -77.8320 109° East 477 549 39,000  Level FlightAware
06:51PM 41.8350 -77.7380 110° East 475 547 39,000  Level FlightAware
06:52PM 41.8080 -77.6370 110° East 474 545 39,000  Level FlightAware
06:52PM 41.7820 -77.5360 109° East 470 541 39,000  Level FlightAware
06:53PM 41.7570 -77.4430 110° East 456 525 39,000  Level FlightAware
06:53PM 41.7290 -77.3490 112° Southeast 445 512 39,000  Level FlightAware
06:54PM 41.6940 -77.2580 117° Southeast 440 506 39,000  Level FlightAware
06:55PM 41.6638 -77.1814 118° Southeast 440 506 39,000  Level FlightAware ADS-B
06:55PM 41.6310 -77.0990 118° Southeast 442 509 39,000  Level FlightAware
06:55PM 41.6096 -77.0423 117° Southeast 441 507 39,000  Level FlightAware ADS-B
06:56PM 41.5815 -76.9696 117° Southeast 441 507 39,000  Level FlightAware ADS-B
06:56PM 41.5510 -76.8945 118° Southeast 437 503 39,000  Level FlightAware ADS-B
06:57PM 41.5209 -76.8235 120° Southeast 436 502 39,000  Level FlightAware ADS-B
06:58PM 41.4868 -76.7426 119° Southeast 436 502 39,000  Level FlightAware ADS-B
06:58PM 41.4563 -76.6701 119° Southeast 436 502 39,000  Level FlightAware ADS-B
06:59PM 41.4219 -76.5891 120° Southeast 437 503 39,000  Level FlightAware ADS-B
06:59PM 41.3914 -76.5175 120° Southeast 438 504 39,000  Level FlightAware ADS-B
07:00PM 41.3596 -76.4422 119° Southeast 441 507 39,000  Level FlightAware ADS-B
07:00PM 41.3481 -76.4103 116° Southeast 445 512 39,000  Level FlightAware ADS-B
07:00PM 41.3412 -76.3882 113° Southeast 448 516 39,000  Level FlightAware ADS-B
07:01PM 41.3221 -76.3063 107° East 457 526 39,000 -369 Level FlightAware ADS-B
07:01PM 41.3062 -76.2131 103° East 467 537 38,600 -1,594 Descending FlightAware ADS-B
07:02PM 41.2911 -76.1264 103° East 480 552 37,300 -2,656 Descending FlightAware ADS-B
07:02PM 41.2763 -76.0400 103° East 472 543 35,900 -3,049 Descending FlightAware ADS-B
07:03PM 41.2614 -75.9536 103° East 471 542 34,200 -3,709 Descending FlightAware ADS-B
07:03PM 41.2495 -75.8838 103° East 470 541 32,500 -4,316 Descending FlightAware ADS-B
07:04PM 41.2337 -75.7927 103° East 475 547 30,100 -4,000 Descending FlightAware ADS-B
07:04PM 41.2189 -75.7069 103° East 469 540 28,300 -3,194 Descending FlightAware ADS-B
07:05PM 41.2039 -75.6206 103° East 464 534 26,800 -2,719 Descending FlightAware ADS-B
07:05PM 41.1882 -75.5311 103° East 453 521 25,400 -2,400 Descending FlightAware ADS-B
07:06PM 41.1729 -75.4441 103° East 446 513 24,200 -2,143 Descending FlightAware ADS-B
07:06PM 41.1615 -75.3804 103° East 440 506 23,400 -2,069 Descending FlightAware ADS-B
07:06PM 41.1591 -75.3685 105° East 439 505 23,200 -1,000 Descending FlightAware ADS-B
07:07PM 41.1473 -75.3196 108° East 435 501 23,000 -364 Descending FlightAware ADS-B
07:07PM 41.1370 -75.2847 111° Southeast 431 496 23,000  Level FlightAware ADS-B
07:07PM 41.1124 -75.2097 114° Southeast 432 497 23,000  Level FlightAware ADS-B
07:08PM 41.0861 -75.1324 114° Southeast 432 497 23,000  Level FlightAware ADS-B
07:08PM 41.0610 -75.0592 114° Southeast 431 496 23,000  Level FlightAware ADS-B
07:09PM 41.0356 -74.9851 114° Southeast 431 496 23,000  Level FlightAware ADS-B
07:09PM 41.0085 -74.9047 114° Southeast 432 497 23,000  Level FlightAware ADS-B
07:10PM 40.9964 -74.8553 108° East 438 504 23,000 -171 Level FlightAware ADS-B
07:10PM 40.9901 -74.8153 102° East 444 511 22,900 -735 Descending FlightAware ADS-B
07:11PM 40.9801 -74.7249 98° East 438 504 22,400 -938 Descending FlightAware ADS-B
07:11PM 40.9715 -74.6447 98° East 433 498 21,900 -1,161 Descending FlightAware ADS-B
07:12PM 40.9626 -74.5623 98° East 428 493 21,200 -1,161 Descending FlightAware ADS-B
07:12PM 40.9541 -74.4848 98° East 421 484 20,700 -1,082 Descending FlightAware ADS-B
07:13PM 40.9454 -74.4059 98° East 415 478 20,100 -1,161 Descending FlightAware ADS-B
07:13PM 40.9368 -74.3292 98° East 411 473 19,500 -1,082 Descending FlightAware ADS-B
07:14PM 40.9284 -74.2544 98° East 405 466 19,000 -517 Descending FlightAware ADS-B
07:14PM 40.9209 -74.1894 99° East 386 444 19,000  Level FlightAware ADS-B
07:14PM 40.9139 -74.1578 106° East 367 422 19,000  Level FlightAware ADS-B
07:14PM 40.9112 -74.1500 115° Southeast 361 415 19,000  Level FlightAware ADS-B
07:15PM 40.9044 -74.1348 121° Southeast 354 407 19,000  Level FlightAware ADS-B
07:15PM 40.8949 -74.1197 130° Southeast 349 402 19,000  Level FlightAware ADS-B
07:15PM 40.8843 -74.1077 139° Southeast 343 395 19,000  Level FlightAware ADS-B
07:15PM 40.8719 -74.0980 149° Southeast 339 390 19,000 -923 Level FlightAware ADS-B
07:15PM 40.8278 -74.0781 161° South 329 379 18,400 -1,839 Descending FlightAware ADS-B
07:16PM 40.7819 -74.0593 163° South 322 371 17,100 -2,585 Descending FlightAware ADS-B
07:17PM 40.7356 -74.0409 163° South 320 368 15,600 -2,526 Descending FlightAware ADS-B
07:17PM 40.7011 -74.0273 163° South 318 366 14,700 -2,200 Descending FlightAware ADS-B
07:17PM 40.6935 -74.0236 160° South 317 365 14,500 -1,692 Descending FlightAware ADS-B
07:18PM 40.6500 -73.9976 156° South 314 361 13,600 -1,406 Descending FlightAware ADS-B
07:18PM 40.6098 -73.9721 154° Southeast 313 360 13,000 -692 Descending FlightAware ADS-B
07:18PM 40.5824 -73.9537 153° Southeast 315 362 13,000  Level FlightAware ADS-B
07:19PM 40.5432 -73.9239 150° Southeast 318 366 13,000 -800 Level FlightAware ADS-B
07:19PM 40.5054 -73.8954 150° Southeast 310 357 12,200 -2,000 Descending FlightAware ADS-B
07:20PM 40.4687 -73.8682 151° Southeast 306 352 11,000 -2,262 Descending FlightAware ADS-B
07:20PM 40.4322 -73.8401 150° Southeast 295 339 9,900 -2,087 Descending FlightAware ADS-B
07:21PM 40.4138 -73.8254 149° Southeast 290 334 9,400 -2,129 Descending FlightAware ADS-B
07:21PM 40.3965 -73.8116 149° Southeast 286 329 8,800 -2,129 Descending FlightAware ADS-B
07:21PM 40.3796 -73.7968 146° Southeast 284 327 8,300 -2,182 Descending FlightAware ADS-B
07:21PM 40.3734 -73.7885 134° Southeast 285 328 8,000 -2,211 Descending FlightAware ADS-B
07:22PM 40.3654 -73.7714 122° Southeast 286 329 7,600 -2,286 Descending FlightAware ADS-B
07:22PM 40.3599 -73.7563 116° Southeast 286 329 7,200 -2,400 Descending FlightAware ADS-B
07:22PM 40.3514 -73.7312 114° Southeast 284 327 6,600 -2,063 Descending FlightAware ADS-B
07:22PM 40.3431 -73.7057 113° Southeast 284 327 6,100 -1,500 Descending FlightAware ADS-B
07:23PM 40.3334 -73.6741 112° Southeast 283 326 5,700 -960 Descending FlightAware ADS-B
07:23PM 40.3370 -73.6320 84° East 287 330 5,300 -1,050 Descending FlightAware
07:23PM 40.3480 -73.6140 51° Northeast 286 329 5,000 -1,333 Descending FlightAware
07:23PM 40.3570 -73.6070 31° Northeast 284 327 4,900 -1,412 Descending FlightAware
07:24PM 40.3683 -73.5981 31° Northeast 286 329 4,600 -1,350 Descending FlightAware ADS-B
07:24PM 40.4040 -73.5750 26° Northeast 289 333 4,000 -720 Descending FlightAware
07:24PM 40.4270 -73.5600 26° Northeast 287 330 4,000  Level FlightAware
07:25PM 40.4570 -73.5410 26° Northeast 284 327 4,000  Level FlightAware
07:25PM 40.4790 -73.5260 27° Northeast 286 329 4,000  Level FlightAware
07:25PM 40.5050 -73.5090 26° Northeast 286 329 4,000  Level FlightAware
07:26PM 40.5230 -73.4970 27° Northeast 287 330 4,000  Level FlightAware
07:26PM 40.5420 -73.4840 27° Northeast 287 330 4,000  Level FlightAware
07:26PM 40.5720 -73.4660 25° Northeast 286 329 4,000  Level FlightAware
07:26PM 40.5790 -73.4640 12° North 284 327 4,000  Level FlightAware
07:27PM 40.5970 -73.4600 10° North 285 328 4,000  Level FlightAware
07:27PM 40.6290 -73.4540 North 284 327 4,000  Level FlightAware
07:27PM 40.6560 -73.4500 North 283 326 4,000  Level FlightAware
07:28PM 40.6710 -73.4470 North 285 328 4,000  Level FlightAware
07:28PM 40.6940 -73.4430 North 277 319 4,000  Level FlightAware
07:28PM 40.7250 -73.4380 North 236 272 4,000 133 Level FlightAware
07:29PM 40.7450 -73.4340 North 216 249 4,100  Climbing FlightAware
07:29PM 40.7630 -73.4310 North 214 246 4,000 -176 Descending FlightAware
07:29PM 40.7780 -73.4290 North 213 245 4,000  Level FlightAware
07:30PM 40.7950 -73.4410 332° Northwest 198 228 4,000  Level FlightAware
07:30PM 40.7990 -73.4500 300° West 195 224 4,000 -444 Level FlightAware
07:30PM 40.8050 -73.4700 292° West 191 220 3,800 -769 Descending FlightAware
07:30PM 40.8110 -73.4910 291° West 189 217 3,500 -923 Descending FlightAware
07:31PM 40.8160 -73.5130 287° West 189 217 3,200 -1,000 Descending FlightAware
07:31PM 40.8190 -73.5250 288° West 186 214 3,000 -1,000 Descending FlightAware
07:31PM 40.8190 -73.5320 270° West 181 208 2,900 -857 Descending FlightAware
07:31PM 40.8180 -73.5550 267° West 172 198 2,600 -923 Descending FlightAware
07:32PM 40.8160 -73.5740 262° West 172 198 2,300 -947 Descending FlightAware
07:32PM 40.8140 -73.5950 263° West 175 201 2,000 -600 Descending FlightAware
07:32PM 40.8120 -73.6040 254° West 171 197 2,000  Level FlightAware
07:33PM 40.8000 -73.6290 238° Southwest 170 196 2,000  Level FlightAware
07:33PM 40.7950 -73.6340 217° Southwest 170 196 2,000  Level FlightAware
07:33PM 40.7890 -73.6420 225° Southwest 172 198 2,000  Level FlightAware
07:33PM 40.7720 -73.6560 212° Southwest 168 193 2,000  Level FlightAware
07:34PM 40.7590 -73.6660 210° Southwest 168 193 2,000  Level FlightAware
07:34PM 40.7450 -73.6760 208° Southwest 169 194 2,000  Level FlightAware
07:34PM 40.7370 -73.6830 214° Southwest 170 196 2,000 -333 Level FlightAware
07:35PM 40.7220 -73.6950 211° Southwest 145 167 1,800 -545 Descending FlightAware
07:35PM 40.7110 -73.7030 209° Southwest 126 145 1,600 -667 Descending FlightAware
07:35PM 40.7000 -73.7120 212° Southwest 121 139 1,300 -667 Descending FlightAware
07:36PM 40.6890 -73.7200 209° Southwest 123 142 1,100 -600 Descending FlightAware
07:36PM 40.6800 -73.7280 214° Southwest 124 143 900 -615 Descending FlightAware
07:36PM 40.6700 -73.7360 211° Southwest 127 146 700 -682 Descending FlightAware
07:37PM 40.6580 -73.7450 210° Southwest 129 148 400 -649 Descending FlightAware
07:37PM 40.6510 -73.7500 208° Southwest 132 152 300 -563 Descending FlightAware
07:37PM 40.6400 -73.7590 212° Southwest 133 153 100 -600 Descending FlightAware